Terminal Aerodrome Forecast
Issued by NWS

Home | Current Version | Previous Version | Text Only | Print | Product List | Glossary On
Versions: 1 2 3 4 5 6 7 8 9 10 11 12 13 14 15 16 17
000
FTUS44 KLIX 291124
TAFMCB
TAF
KMCB 291124Z 2912/3012 VRB04KT P6SM SCT030
     FM291700 18010KT P6SM SCT035
     FM300000 19006KT P6SM SCT045
     FM300100 18005KT P6SM SCT250
     FM300900 VRB03KT 2SM BR BKN250=

USA.gov is the U.S. government's official web portal to all federal, state and local government web resources and services.